Airfield :
LOGIN :

Register | Disclaimer

   EN    FR    IT 

 










Legend :    VFR   Marginal VFR   IFR   Intensive IFR   Very Intensive IFR
Visi :
Ceiling :
>= 8 km
>= 3000ft
5 to 8 km
1000 to 3000 ft
1500m to 5 km
500 to 1000 ft
800 to 1500m
200 to 500 ft
< 800m
< 200 ft
Symbols :   Thunderstorms  Fog  Heavy snow  Heavy precipitations  Wind > 20 kt
SIGMETs :     Misc.  Thunderstorms  Icing  Turbulence  Mountain Waves  Volcanic Ashes







- Airport Elevation : 13 ft
- IATA code : LYX
- Download approach charts


EGMD - Lydd

CURRENT METAR :
  • 162150Z AUTO 24018KT 9999 NCD 16/11 Q1020

EXPIRED METARs :
  • 162120Z AUTO 24020KT 9999 NCD 16/11 Q1020
  • 162050Z AUTO 24020KT 9999 NCD 16/12 Q1020
  • 162020Z AUTO 24020KT 9999 NCD 16/11 Q1019
  • 161950Z AUTO 24022KT 9999 NCD 17/11 Q1019
  • 161920Z AUTO 24018KT 9999 SCT038/// 17/12 Q1019

TAF TAF EGMD
Valid from the 16 at 21:00 until the 17 at 06:00 UTC


162001Z 1621/1706 22020G30KT 9999 FEW020
BECMG 1621/1624 22014KT
ATIS : +44 1797 322 422
No reported NOTAMs for that airfield.
2 SIGMETs reported for the London FIR (EGTT) :
 
Severe mountain waves
EGTT SIGMET 09 VALID 162100/170100 EGRR
EGTT LONDON FIR SEV MTW FCST N OF LINE N4941 W00800 - N5059 E00128 FL030/200 STNR NC=
Severe turbulence
EGTT SIGMET 08 VALID 161900/162300 EGRR
EGTT LONDON FIR SEV TURB FCST WI N5100 W00800 - N5220 W00530 - N5500 W00530 - N5500 W00100 - N5500 E00228 - N5017 W00032 - N4919 W00800 - N5100 W00800 SFC/FL060 MOV NNE 15KT NC=



MET'MAP, your aeronautical weather chart ! - Copyright ORBIFLY December 2007 - Disclaimer

ORBIFLY MET'MAP TEAM :

Programming & Development : Alexandra Zaïnal
Concept & Development : Baudouin d'Aumeries
Co-Development & Prog : Marc-Olivier Méhu
Technical & hardware support : Manuel Goepfert

Contact : metmap@orbifly.com




SOURCES & CREDITS :

   NOAA